HBZ weather

Heber Springs Municipal Airport
Heber Springs, Arkansas, United States

Public forecast

Using degrees Fahrenheit for public forecast. Weather courtesy of forecast.io.

METAR (pilot weather report)

Closest report is Batesville Regional Airport, 22.0 nm (40.8 km) NE. Retrieved 2019/08/21 22:56 UTC (25 minutes ago):

KBVX 212256Z AUTO VRB06KT 10SM -TSRA BKN046 OVC060 26/21 A3002 RMK AO2 LTG DSNT NW-NE TSB26E34B36RAB55 SLP162 P0000 T02610211

TAF (pilot weather forecast)

Forecast is more than 6 hours old.

Closest forecast is Little Rock Air Force Base, 36.3 nm (67.3 km) S. Retrieved 2019/08/21 15:06 UTC (8 hours ago):

TAF TAF KLRF 211500Z 2115/2221 VRB06KT 9999 FEW035 SCT200 QNH3000INS BECMG 2118/2119 16012KT 9999 SCT040 SCT200 QNH2991INS BECMG 2216/2217 20010G15KT 9000 -SHRA SCT040 BKN100 QNH2991INS TEMPO 2217/2221 VRB12G18KT 8000 -TSRA BKN030CB BKN100 TX37/2121Z TN22/2212Z